South Riding, Virginia
Current Conditions -  °F | °C
As of 4:52 AM on Friday 31 Oct 2014 (Local Time) from KIAD Reporting Station
Overcast Overcast  
Wind Chill: 36°   Ceiling: 6000
Heat Index: 36°   Visibility: 10mi
Dew Point: 35°   Wind: 0mph
Humidity: 97%   Direction: NA
Pressure: 30.01"   Gusts: NA
Location:  38.8963°N, 77.5216°W
Report Text: KIAD 310852Z 00000KT 10SM OVC060 02/02 A3001 RMK AO2 SLP163 T00220017 57007
Loading
Personal Weather Stations






























Interactive Weather Map
Tropical Storm Tracking
New forecast layout! Learn more

10-Day Weather Forecast

Advertisements
Track Severe Weather on mobile